createdAt,value
2017-03-20T00:00:05.271Z,86.30
2017-03-20T00:01:05.812Z,86.46
2017-03-20T00:02:06.336Z,86.68
2017-03-20T00:03:06.878Z,86.73
2017-03-20T00:04:07.399Z,86.89
2017-03-20T00:05:07.938Z,86.91
2017-03-20T00:06:08.610Z,86.94
2017-03-20T00:07:09.006Z,86.79
2017-03-20T00:08:09.536Z,86.52
2017-03-20T00:09:10.072Z,87.16
2017-03-20T00:10:10.599Z,87.29
2017-03-20T00:11:11.134Z,87.48
2017-03-20T00:12:11.670Z,87.59
2017-03-20T00:13:12.211Z,88.04
2017-03-20T00:14:12.737Z,88.28
2017-03-20T00:15:13.281Z,88.57
2017-03-20T00:16:13.945Z,88.97
2017-03-20T00:17:14.340Z,89.00
2017-03-20T00:18:14.869Z,89.40
2017-03-20T00:19:15.399Z,89.88
2017-03-20T00:20:15.928Z,90.07
2017-03-20T00:21:16.469Z,90.05
2017-03-20T00:22:16.996Z,90.26
2017-03-20T00:23:17.538Z,90.55
2017-03-20T00:24:18.062Z,90.77
2017-03-20T00:25:18.599Z,91.03
2017-03-20T00:26:19.128Z,91.07
2017-03-20T00:27:19.673Z,91.30
2017-03-20T00:28:20.193Z,90.58
2017-03-20T00:29:20.727Z,90.71
2017-03-20T00:30:21.253Z,90.93
2017-03-20T00:31:21.794Z,90.90
2017-03-20T00:32:22.329Z,91.17
2017-03-20T00:33:22.863Z,90.98
2017-03-20T00:34:23.392Z,91.17
2017-03-20T00:35:23.928Z,91.41
2017-03-20T00:36:24.448Z,90.98
2017-03-20T00:37:25.001Z,91.30
2017-03-20T00:38:25.522Z,91.36
2017-03-20T00:39:26.058Z,91.09
2017-03-20T00:40:26.896Z,91.41
2017-03-20T00:41:27.141Z,91.65
2017-03-20T00:42:27.672Z,91.97
2017-03-20T00:43:28.214Z,92.51
2017-03-20T00:44:28.738Z,92.51
2017-03-20T00:45:29.275Z,92.32
2017-03-20T00:46:29.806Z,92.62
2017-03-20T00:47:30.345Z,92.86
2017-03-20T00:48:30.869Z,93.18
2017-03-20T00:49:31.406Z,92.95
2017-03-20T00:50:31.939Z,92.65
2017-03-20T00:51:32.465Z,92.86
2017-03-20T00:52:32.995Z,92.81
2017-03-20T00:53:33.542Z,92.78
2017-03-20T00:54:34.082Z,93.26
2017-03-20T00:55:34.599Z,93.26
2017-03-20T00:56:35.128Z,93.37
2017-03-20T00:57:35.669Z,93.89
2017-03-20T00:58:36.344Z,93.85
2017-03-20T00:59:36.746Z,93.75
2017-03-20T01:00:37.269Z,93.85
2017-03-20T01:01:37.814Z,93.70
2017-03-20T01:02:38.333Z,93.67
2017-03-20T01:03:38.873Z,93.89
2017-03-20T01:04:39.408Z,94.37
2017-03-20T01:05:39.933Z,94.56
2017-03-20T01:06:40.467Z,94.64
2017-03-20T01:07:41.003Z,94.61
2017-03-20T01:08:41.537Z,94.42
2017-03-20T01:09:42.087Z,93.85
2017-03-20T01:10:42.612Z,93.94
2017-03-20T01:11:43.140Z,93.10
2017-03-20T01:12:43.670Z,92.99
2017-03-20T01:13:44.343Z,93.29
2017-03-20T01:14:44.735Z,93.45
2017-03-20T01:15:45.272Z,93.51
2017-03-20T01:16:45.800Z,93.85
2017-03-20T01:17:46.336Z,94.12
2017-03-20T01:18:46.868Z,94.23
2017-03-20T01:19:47.407Z,94.29
2017-03-20T01:20:47.935Z,94.64
2017-03-20T01:21:48.483Z,94.48
2017-03-20T01:22:49.027Z,94.42
2017-03-20T01:23:49.694Z,94.59
2017-03-20T01:24:50.078Z,94.91
2017-03-20T01:25:50.612Z,95.12
2017-03-20T01:26:51.144Z,95.10
2017-03-20T01:27:51.969Z,94.67
2017-03-20T01:28:52.205Z,95.10
2017-03-20T01:29:52.750Z,94.64
2017-03-20T01:30:53.270Z,94.83
2017-03-20T01:31:53.809Z,95.31
2017-03-20T01:32:54.337Z,94.83
2017-03-20T01:33:55.013Z,94.86
2017-03-20T01:34:55.548Z,93.99
2017-03-20T01:35:56.092Z,93.64
2017-03-20T01:36:56.473Z,93.64
2017-03-20T01:37:57.003Z,93.59
2017-03-20T01:38:57.535Z,93.89
2017-03-20T01:39:58.067Z,94.18
2017-03-20T01:40:58.594Z,94.10
2017-03-20T01:41:59.143Z,94.07
2017-03-20T01:42:59.663Z,94.04
2017-03-20T01:44:00.200Z,94.21
2017-03-20T01:45:00.730Z,94.48
2017-03-20T01:46:01.261Z,93.70
2017-03-20T01:47:01.792Z,93.26
2017-03-20T01:48:02.334Z,93.10
2017-03-20T01:49:02.868Z,93.26
2017-03-20T01:50:03.393Z,93.18
2017-03-20T01:51:03.923Z,93.37
2017-03-20T01:52:04.455Z,92.91
2017-03-20T01:53:04.988Z,92.86
2017-03-20T01:54:05.525Z,92.97
2017-03-20T01:55:06.056Z,92.76
2017-03-20T01:56:06.586Z,92.05
2017-03-20T01:57:07.137Z,92.84
2017-03-20T01:58:07.663Z,92.97
2017-03-20T01:59:08.190Z,91.68
2017-03-20T02:00:08.736Z,91.76
2017-03-20T02:01:09.263Z,91.76
2017-03-20T02:02:09.816Z,91.52
2017-03-20T02:03:10.341Z,91.33
2017-03-20T02:04:10.886Z,92.24
2017-03-20T02:05:11.412Z,92.05
2017-03-20T02:06:11.946Z,91.68
2017-03-20T02:07:12.472Z,91.71
2017-03-20T02:08:13.011Z,91.41
2017-03-20T02:09:13.538Z,91.76
2017-03-20T02:10:14.075Z,91.97
2017-03-20T02:11:14.598Z,91.92
2017-03-20T02:12:15.134Z,91.76
2017-03-20T02:13:15.669Z,92.01
2017-03-20T02:14:16.203Z,92.22
2017-03-20T02:15:16.902Z,92.16
2017-03-20T02:16:17.272Z,92.27
2017-03-20T02:17:17.801Z,92.65
2017-03-20T02:18:18.336Z,91.44
2017-03-20T02:19:18.864Z,90.93
2017-03-20T02:20:19.398Z,90.61
2017-03-20T02:21:19.929Z,90.85
2017-03-20T02:22:20.463Z,90.82
2017-03-20T02:23:21.002Z,90.61
2017-03-20T02:24:21.535Z,90.34
2017-03-20T02:25:22.066Z,90.88
2017-03-20T02:26:22.605Z,90.09
2017-03-20T02:27:23.126Z,90.42
2017-03-20T02:28:23.672Z,90.42
2017-03-20T02:29:24.191Z,90.31
2017-03-20T02:30:24.727Z,90.63
2017-03-20T02:31:25.275Z,90.71
2017-03-20T02:32:25.810Z,90.90
2017-03-20T02:33:26.327Z,90.26
2017-03-20T02:34:26.864Z,90.34
2017-03-20T02:35:27.394Z,90.63
2017-03-20T02:36:27.929Z,90.28
2017-03-20T02:37:28.457Z,90.42
2017-03-20T02:38:28.995Z,90.28
2017-03-20T02:39:29.523Z,90.26
2017-03-20T02:40:30.070Z,90.66
2017-03-20T02:41:30.599Z,90.61
2017-03-20T02:42:31.143Z,90.66
2017-03-20T02:43:31.678Z,91.01
2017-03-20T02:44:32.213Z,90.98
2017-03-20T02:45:32.747Z,90.96
2017-03-20T02:46:33.289Z,90.93
2017-03-20T02:47:33.819Z,91.52
2017-03-20T02:48:34.359Z,91.76
2017-03-20T02:49:34.888Z,91.95
2017-03-20T02:50:35.419Z,92.38
2017-03-20T02:51:35.950Z,92.57
2017-03-20T02:52:36.489Z,92.35
2017-03-20T02:53:37.016Z,92.43
2017-03-20T02:54:37.549Z,92.70
2017-03-20T02:55:38.085Z,92.59
2017-03-20T02:56:38.614Z,92.73
2017-03-20T02:57:39.149Z,92.86
2017-03-20T02:58:39.680Z,92.86
2017-03-20T02:59:40.213Z,92.11
2017-03-20T03:00:40.753Z,91.76
2017-03-20T03:01:41.276Z,92.43
2017-03-20T03:02:41.957Z,92.62
2017-03-20T03:03:42.344Z,91.95
2017-03-20T03:04:42.892Z,92.14
2017-03-20T03:05:43.411Z,91.95
2017-03-20T03:06:43.948Z,92.14
2017-03-20T03:07:44.477Z,91.95
2017-03-20T03:08:45.024Z,92.11
2017-03-20T03:09:45.557Z,92.22
2017-03-20T03:10:46.091Z,92.46
2017-03-20T03:11:46.609Z,93.02
2017-03-20T03:12:47.150Z,93.10
2017-03-20T03:13:47.672Z,93.32
2017-03-20T03:14:48.211Z,93.32
2017-03-20T03:15:48.735Z,93.32
2017-03-20T03:16:49.282Z,93.91
2017-03-20T03:17:49.807Z,94.26
2017-03-20T03:18:50.344Z,94.21
2017-03-20T03:19:50.872Z,94.18
2017-03-20T03:20:51.409Z,93.83
2017-03-20T03:21:51.938Z,93.94
2017-03-20T03:22:52.466Z,93.43
2017-03-20T03:23:53.009Z,93.89
2017-03-20T03:24:53.546Z,93.81
2017-03-20T03:25:54.081Z,94.10
2017-03-20T03:26:54.613Z,93.91
2017-03-20T03:27:55.144Z,94.02
2017-03-20T03:28:55.678Z,93.89
2017-03-20T03:29:56.215Z,93.94
2017-03-20T03:30:56.747Z,93.85
2017-03-20T03:31:57.282Z,93.89
2017-03-20T03:32:57.812Z,94.37
2017-03-20T03:33:58.346Z,94.37
2017-03-20T03:34:58.883Z,94.15
2017-03-20T03:35:59.410Z,94.15
2017-03-20T03:36:59.943Z,94.59
2017-03-20T03:38:00.477Z,94.69
2017-03-20T03:39:01.011Z,94.45
2017-03-20T03:40:01.542Z,94.40
2017-03-20T03:41:02.075Z,94.83
2017-03-20T03:42:02.608Z,95.07
2017-03-20T03:43:03.148Z,94.02
2017-03-20T03:44:03.675Z,93.99
2017-03-20T03:45:04.207Z,94.10
2017-03-20T03:46:04.738Z,94.02
2017-03-20T03:47:05.274Z,93.13
2017-03-20T03:48:05.806Z,93.18
2017-03-20T03:49:06.343Z,92.46
2017-03-20T03:50:07.222Z,92.27
2017-03-20T03:51:07.407Z,92.49
2017-03-20T03:52:07.942Z,92.54
2017-03-20T03:53:08.468Z,92.49
2017-03-20T03:54:09.003Z,92.43
2017-03-20T03:55:09.532Z,92.51
2017-03-20T03:56:10.066Z,92.99
2017-03-20T03:57:10.600Z,93.24
2017-03-20T03:58:11.141Z,93.08
2017-03-20T03:59:11.662Z,93.18
2017-03-20T04:00:12.195Z,93.24
2017-03-20T04:01:12.725Z,93.32
2017-03-20T04:02:13.262Z,93.10
2017-03-20T04:03:13.795Z,92.84
2017-03-20T04:04:14.333Z,92.84
2017-03-20T04:05:14.873Z,93.10
2017-03-20T04:06:15.409Z,92.81
2017-03-20T04:07:16.093Z,92.81
2017-03-20T04:08:16.478Z,92.99
2017-03-20T04:09:17.010Z,93.29
2017-03-20T04:10:17.545Z,93.26
2017-03-20T04:11:18.222Z,93.59
2017-03-20T04:12:18.608Z,93.83
2017-03-20T04:13:19.144Z,92.78
2017-03-20T04:14:19.674Z,92.84
2017-03-20T04:15:20.205Z,93.26
2017-03-20T04:16:20.739Z,92.86
2017-03-20T04:17:21.270Z,92.91
2017-03-20T04:18:21.812Z,93.29
2017-03-20T04:19:22.339Z,93.62
2017-03-20T04:20:22.870Z,93.54
2017-03-20T04:21:23.402Z,93.62
2017-03-20T04:22:23.947Z,93.75
2017-03-20T04:23:24.471Z,94.02
2017-03-20T04:24:25.004Z,94.42
2017-03-20T04:25:25.546Z,94.42
2017-03-20T04:26:26.073Z,94.02
2017-03-20T04:27:26.606Z,94.02
2017-03-20T04:28:27.140Z,94.23
2017-03-20T04:29:27.671Z,93.59
2017-03-20T04:30:28.204Z,92.91
2017-03-20T04:31:28.740Z,93.02
2017-03-20T04:32:29.275Z,93.10
2017-03-20T04:33:29.809Z,93.02
2017-03-20T04:34:30.343Z,92.46
2017-03-20T04:35:30.870Z,92.73
2017-03-20T04:36:31.409Z,92.16
2017-03-20T04:37:32.242Z,91.84
2017-03-20T04:38:32.470Z,92.43
2017-03-20T04:39:33.006Z,92.05
2017-03-20T04:40:33.541Z,91.49
2017-03-20T04:41:34.067Z,91.60
2017-03-20T04:42:34.604Z,91.65
2017-03-20T04:43:35.134Z,91.36
2017-03-20T04:44:35.672Z,91.38
2017-03-20T04:45:36.368Z,91.22
2017-03-20T04:46:36.755Z,91.49
2017-03-20T04:47:37.293Z,91.63
2017-03-20T04:48:37.970Z,91.90
2017-03-20T04:49:38.354Z,91.92
2017-03-20T04:50:38.885Z,92.14
2017-03-20T04:51:39.423Z,92.03
2017-03-20T04:52:39.955Z,92.14
2017-03-20T04:53:40.490Z,92.43
2017-03-20T04:54:41.020Z,92.32
2017-03-20T04:55:41.550Z,92.68
2017-03-20T04:56:42.082Z,92.19
2017-03-20T04:57:42.614Z,92.51
2017-03-20T04:58:43.148Z,92.30
2017-03-20T04:59:43.677Z,92.08
2017-03-20T05:00:44.217Z,92.01
2017-03-20T05:01:44.754Z,91.92
2017-03-20T05:02:45.286Z,91.86
2017-03-20T05:03:45.819Z,91.90
2017-03-20T05:04:46.353Z,91.60
2017-03-20T05:05:46.888Z,91.07
2017-03-20T05:06:47.431Z,90.55
2017-03-20T05:07:47.963Z,90.31
2017-03-20T05:08:48.497Z,90.05
2017-03-20T05:09:49.179Z,90.15
2017-03-20T05:10:49.561Z,90.36
2017-03-20T05:11:50.096Z,90.66
2017-03-20T05:12:50.628Z,90.74
2017-03-20T05:13:51.162Z,90.96
2017-03-20T05:14:51.693Z,90.98
2017-03-20T05:15:52.235Z,91.33
2017-03-20T05:16:52.760Z,91.01
2017-03-20T05:17:53.445Z,90.63
2017-03-20T05:18:53.841Z,89.62
2017-03-20T05:19:54.363Z,87.72
2017-03-20T05:20:54.893Z,88.23
2017-03-20T05:21:55.425Z,88.25
2017-03-20T05:22:55.960Z,88.81
2017-03-20T05:23:56.499Z,88.97
2017-03-20T05:24:57.178Z,88.09
2017-03-20T05:25:57.567Z,88.52
2017-03-20T05:26:58.103Z,88.65
2017-03-20T05:27:58.650Z,89.06
2017-03-20T05:28:59.182Z,88.20
2017-03-20T05:29:59.709Z,88.44
2017-03-20T05:31:00.238Z,88.44
2017-03-20T05:32:00.773Z,88.31
2017-03-20T05:33:01.484Z,88.92
2017-03-20T05:34:01.830Z,89.00
2017-03-20T05:35:02.367Z,88.95
2017-03-20T05:36:02.894Z,89.29
2017-03-20T05:37:03.426Z,89.06
2017-03-20T05:38:03.960Z,88.76
2017-03-20T05:39:04.495Z,89.16
2017-03-20T05:40:05.020Z,88.52
2017-03-20T05:41:05.698Z,88.68
2017-03-20T05:42:06.085Z,88.28
2017-03-20T05:43:06.614Z,87.18
2017-03-20T05:44:07.152Z,87.32
2017-03-20T05:45:07.681Z,87.51
2017-03-20T05:46:08.215Z,87.77
2017-03-20T05:47:08.747Z,87.67
2017-03-20T05:48:09.293Z,87.93
2017-03-20T05:49:09.821Z,87.61
2017-03-20T05:50:10.348Z,87.96
2017-03-20T05:51:10.885Z,87.32
2017-03-20T05:52:11.407Z,87.53
2017-03-20T05:53:11.945Z,87.08
2017-03-20T05:54:12.479Z,87.64
2017-03-20T05:55:13.009Z,87.32
2017-03-20T05:56:13.551Z,87.51
2017-03-20T05:57:14.073Z,87.16
2017-03-20T05:58:14.604Z,86.52
2017-03-20T05:59:15.138Z,87.85
2017-03-20T06:00:15.668Z,88.33
2017-03-20T06:01:16.206Z,88.36
2017-03-20T06:02:16.733Z,88.09
2017-03-20T06:03:17.268Z,88.84
2017-03-20T06:04:17.803Z,88.36
2017-03-20T06:05:18.332Z,88.41
2017-03-20T06:06:18.869Z,88.39
2017-03-20T06:07:19.405Z,88.50
2017-03-20T06:08:19.948Z,88.17
2017-03-20T06:09:20.489Z,88.54
2017-03-20T06:10:21.019Z,88.68
2017-03-20T06:11:21.550Z,89.00
2017-03-20T06:12:22.264Z,89.16
2017-03-20T06:13:22.618Z,89.00
2017-03-20T06:14:23.146Z,89.16
2017-03-20T06:15:23.683Z,88.09
2017-03-20T06:16:24.213Z,88.60
2017-03-20T06:17:24.749Z,89.11
2017-03-20T06:18:25.289Z,89.40
2017-03-20T06:19:25.815Z,89.35
2017-03-20T06:20:26.518Z,89.80
2017-03-20T06:21:26.874Z,90.47
2017-03-20T06:22:27.413Z,91.22
2017-03-20T06:23:27.938Z,91.68
2017-03-20T06:24:28.467Z,92.08
2017-03-20T06:25:29.005Z,92.70
2017-03-20T06:26:29.539Z,93.13
2017-03-20T06:27:30.095Z,93.51
2017-03-20T06:28:30.598Z,93.96
2017-03-20T06:29:31.133Z,94.04
2017-03-20T06:30:31.674Z,93.91
2017-03-20T06:31:32.199Z,94.02
2017-03-20T06:32:32.733Z,94.18
2017-03-20T06:33:33.262Z,94.37
2017-03-20T06:34:33.792Z,94.59
2017-03-20T06:35:34.327Z,94.64
2017-03-20T06:36:34.870Z,94.56
2017-03-20T06:37:35.392Z,93.64
2017-03-20T06:38:36.075Z,93.29
2017-03-20T06:39:36.603Z,93.62
2017-03-20T06:40:37.147Z,93.83
2017-03-20T06:41:37.528Z,93.13
2017-03-20T06:42:38.054Z,92.57
2017-03-20T06:43:38.585Z,92.65
2017-03-20T06:44:39.112Z,92.51
2017-03-20T06:45:39.647Z,91.90
2017-03-20T06:46:40.186Z,92.35
2017-03-20T06:47:40.724Z,92.30
2017-03-20T06:48:41.261Z,92.01
2017-03-20T06:49:41.798Z,92.11
2017-03-20T06:50:42.328Z,92.08
2017-03-20T06:51:42.862Z,91.79
2017-03-20T06:52:43.400Z,91.57
2017-03-20T06:53:43.932Z,91.36
2017-03-20T06:54:44.464Z,91.52
2017-03-20T06:55:45.002Z,91.92
2017-03-20T06:56:45.531Z,90.98
2017-03-20T06:57:46.062Z,91.44
2017-03-20T06:58:46.593Z,91.95
2017-03-20T06:59:47.134Z,91.95
2017-03-20T07:00:47.968Z,91.90
2017-03-20T07:01:48.198Z,91.92
2017-03-20T07:02:48.884Z,91.86
2017-03-20T07:03:49.263Z,91.68
2017-03-20T07:04:49.796Z,90.05
2017-03-20T07:05:50.332Z,90.63
2017-03-20T07:06:50.862Z,90.39
2017-03-20T07:07:51.444Z,89.80
2017-03-20T07:08:51.926Z,90.09
2017-03-20T07:09:52.460Z,89.75
2017-03-20T07:10:52.990Z,89.54
2017-03-20T07:11:53.526Z,89.11
2017-03-20T07:12:54.066Z,89.03
2017-03-20T07:13:54.595Z,88.39
2017-03-20T07:14:55.129Z,87.77
2017-03-20T07:15:55.659Z,88.87
2017-03-20T07:16:56.226Z,88.54
2017-03-20T07:17:56.724Z,88.25
2017-03-20T07:18:57.264Z,88.84
2017-03-20T07:19:57.793Z,88.04
2017-03-20T07:20:58.326Z,87.88
2017-03-20T07:21:58.857Z,88.04
2017-03-20T07:22:59.389Z,88.57
2017-03-20T07:23:59.916Z,88.04
2017-03-20T07:25:00.599Z,88.15
2017-03-20T07:26:00.978Z,88.09
2017-03-20T07:27:01.524Z,88.60
2017-03-20T07:28:02.052Z,87.90
2017-03-20T07:29:02.601Z,88.01
2017-03-20T07:30:03.119Z,88.01
2017-03-20T07:31:03.652Z,87.77
2017-03-20T07:32:04.336Z,87.93
2017-03-20T07:33:04.874Z,88.23
2017-03-20T07:34:05.255Z,87.96
2017-03-20T07:35:05.786Z,88.44
2017-03-20T07:36:06.321Z,87.21
2017-03-20T07:37:06.856Z,87.51
2017-03-20T07:38:07.419Z,87.02
2017-03-20T07:39:07.935Z,86.84
2017-03-20T07:40:08.595Z,86.79
2017-03-20T07:41:09.132Z,86.57
2017-03-20T07:42:09.520Z,87.08
2017-03-20T07:43:10.046Z,87.18
2017-03-20T07:44:10.583Z,86.91
2017-03-20T07:45:11.117Z,87.45
2017-03-20T07:46:11.649Z,87.34
2017-03-20T07:47:12.178Z,87.40
2017-03-20T07:48:12.714Z,87.37
2017-03-20T07:49:13.394Z,88.04
2017-03-20T07:50:13.775Z,87.45
2017-03-20T07:51:14.307Z,87.13
2017-03-20T07:52:14.838Z,87.69
2017-03-20T07:53:15.373Z,87.29
2017-03-20T07:54:15.908Z,87.18
2017-03-20T07:55:16.441Z,86.87
2017-03-20T07:56:16.969Z,86.49
2017-03-20T07:57:17.507Z,86.94
2017-03-20T07:58:18.036Z,86.63
2017-03-20T07:59:18.575Z,86.33
2017-03-20T08:00:19.254Z,86.65
2017-03-20T08:01:19.645Z,86.68
2017-03-20T08:02:20.188Z,86.68
2017-03-20T08:03:20.722Z,86.71
2017-03-20T08:04:21.262Z,87.21
2017-03-20T08:05:21.797Z,87.10
2017-03-20T08:06:22.325Z,87.45
2017-03-20T08:07:22.858Z,87.05
2017-03-20T08:08:23.395Z,86.65
2017-03-20T08:09:23.934Z,87.37
2017-03-20T08:10:24.470Z,86.52
2017-03-20T08:11:25.005Z,86.54
2017-03-20T08:12:25.543Z,86.12
2017-03-20T08:13:26.077Z,87.29
2017-03-20T08:14:26.617Z,87.16
2017-03-20T08:15:27.144Z,87.56
2017-03-20T08:16:27.674Z,86.71
2017-03-20T08:17:28.206Z,87.21
2017-03-20T08:18:28.742Z,87.74
2017-03-20T08:19:29.272Z,87.10
2017-03-20T08:20:29.805Z,87.59
2017-03-20T08:21:30.526Z,88.17
2017-03-20T08:22:30.877Z,87.53
2017-03-20T08:23:31.416Z,88.23
2017-03-20T08:24:31.930Z,87.69
2017-03-20T08:25:32.464Z,87.40
2017-03-20T08:26:34.497Z,86.52
2017-03-20T08:27:33.529Z,87.10
2017-03-20T08:28:34.066Z,87.48
2017-03-20T08:29:34.608Z,87.85
2017-03-20T08:31:35.663Z,87.00
2017-03-20T08:32:36.201Z,86.38
2017-03-20T08:33:36.733Z,86.79
2017-03-20T08:34:37.266Z,86.57
2017-03-20T08:35:37.796Z,87.18
2017-03-20T08:36:38.334Z,85.48
2017-03-20T08:37:38.862Z,85.83
2017-03-20T08:38:39.392Z,87.32
2017-03-20T08:39:39.929Z,86.25
2017-03-20T08:40:40.462Z,86.30
2017-03-20T08:41:40.988Z,86.33
2017-03-20T08:42:41.697Z,86.71
2017-03-20T08:43:42.068Z,84.81
2017-03-20T08:44:42.593Z,85.38
2017-03-20T08:45:43.124Z,84.58
2017-03-20T08:46:43.655Z,85.08
2017-03-20T08:47:44.190Z,84.52
2017-03-20T08:48:44.725Z,83.38
2017-03-20T08:49:45.272Z,83.89
2017-03-20T08:50:45.803Z,83.91
2017-03-20T08:51:46.341Z,84.42
2017-03-20T08:52:46.877Z,83.65
2017-03-20T08:53:47.409Z,84.07
2017-03-20T08:54:47.944Z,84.07
2017-03-20T08:55:48.478Z,84.09
2017-03-20T08:56:49.011Z,83.86
2017-03-20T08:57:49.696Z,82.98
2017-03-20T08:58:50.081Z,84.20
2017-03-20T08:59:50.630Z,84.05
2017-03-20T09:00:51.154Z,83.83
2017-03-20T09:01:51.698Z,83.65
2017-03-20T09:02:52.236Z,84.66
2017-03-20T09:03:52.774Z,84.63
2017-03-20T09:04:53.454Z,85.11
2017-03-20T09:05:53.844Z,84.87
2017-03-20T09:06:54.389Z,85.46
2017-03-20T09:07:54.926Z,85.08
2017-03-20T09:08:55.458Z,85.46
2017-03-20T09:09:56.004Z,85.19
2017-03-20T09:10:56.527Z,86.28
2017-03-20T09:11:57.063Z,86.91
2017-03-20T09:12:57.594Z,87.26
2017-03-20T09:13:58.119Z,87.34
2017-03-20T09:14:58.799Z,87.64
2017-03-20T09:15:59.188Z,86.91
2017-03-20T09:16:59.718Z,86.38
2017-03-20T09:18:00.252Z,86.71
2017-03-20T09:19:00.787Z,86.71
2017-03-20T09:20:01.319Z,85.58
2017-03-20T09:21:01.852Z,87.13
2017-03-20T09:22:02.384Z,86.63
2017-03-20T09:23:02.922Z,86.07
2017-03-20T09:24:03.450Z,86.65
2017-03-20T09:25:03.982Z,87.74
2017-03-20T09:26:04.515Z,87.93
2017-03-20T09:27:05.048Z,87.18
2017-03-20T09:28:05.736Z,88.65
2017-03-20T09:29:06.113Z,88.87
2017-03-20T09:30:06.644Z,89.37
2017-03-20T09:31:07.182Z,88.54
2017-03-20T09:32:07.722Z,89.51
2017-03-20T09:33:08.259Z,90.20
2017-03-20T09:34:08.784Z,90.07
2017-03-20T09:35:09.324Z,89.35
2017-03-20T09:36:09.859Z,89.14
2017-03-20T09:37:10.392Z,89.08
2017-03-20T09:38:10.929Z,87.74
2017-03-20T09:39:11.463Z,89.00
2017-03-20T09:40:12.006Z,90.39
2017-03-20T09:41:12.530Z,88.62
2017-03-20T09:42:13.057Z,86.91
2017-03-20T09:43:13.595Z,88.15
2017-03-20T09:44:14.131Z,89.27
2017-03-20T09:45:14.658Z,90.05
2017-03-20T09:46:15.194Z,88.65
2017-03-20T09:47:15.726Z,87.59
2017-03-20T09:48:16.409Z,88.31
2017-03-20T09:49:16.795Z,88.12
2017-03-20T09:50:17.327Z,87.96
2017-03-20T09:51:17.858Z,85.48
2017-03-20T09:52:18.392Z,85.03
2017-03-20T09:53:18.925Z,86.30
2017-03-20T09:54:19.457Z,86.30
2017-03-20T09:55:19.991Z,85.66
2017-03-20T09:56:20.526Z,85.93
2017-03-20T09:57:21.054Z,84.20
2017-03-20T09:59:22.120Z,85.96
2017-03-20T10:00:22.659Z,85.03
2017-03-20T10:01:23.184Z,86.22
2017-03-20T10:02:23.719Z,86.63
2017-03-20T10:03:24.253Z,86.87
2017-03-20T10:04:24.782Z,85.80
2017-03-20T10:05:25.321Z,86.28
2017-03-20T10:06:25.853Z,85.80
2017-03-20T10:07:26.390Z,85.11
2017-03-20T10:08:26.919Z,85.69
2017-03-20T10:09:27.447Z,86.54
2017-03-20T10:10:27.991Z,86.68
2017-03-20T10:11:28.516Z,85.21
2017-03-20T10:12:29.050Z,85.38
2017-03-20T10:13:29.588Z,85.05
2017-03-20T10:14:30.123Z,85.58
2017-03-20T10:15:30.802Z,84.66
2017-03-20T10:16:31.188Z,85.53
2017-03-20T10:17:31.722Z,85.72
2017-03-20T10:18:32.264Z,86.97
2017-03-20T10:19:32.787Z,86.38
2017-03-20T10:20:33.348Z,86.09
2017-03-20T10:21:33.851Z,85.99
2017-03-20T10:22:34.385Z,87.05
2017-03-20T10:23:34.919Z,85.24
2017-03-20T10:24:35.452Z,86.15
2017-03-20T10:25:35.988Z,86.89
2017-03-20T10:26:36.516Z,87.34
2017-03-20T10:27:37.054Z,87.72
2017-03-20T10:28:37.585Z,87.13
2017-03-20T10:29:38.118Z,86.94
2017-03-20T10:30:38.644Z,87.05
2017-03-20T10:31:39.182Z,85.77
2017-03-20T10:32:39.864Z,86.71
2017-03-20T10:33:40.252Z,86.57
2017-03-20T10:34:40.783Z,87.74
2017-03-20T10:35:41.314Z,87.61
2017-03-20T10:36:41.847Z,88.12
2017-03-20T10:37:42.386Z,87.34
2017-03-20T10:38:42.923Z,88.36
2017-03-20T10:39:43.454Z,88.23
2017-03-20T10:40:43.991Z,87.21
2017-03-20T10:41:44.514Z,87.10
2017-03-20T10:42:45.044Z,87.82
2017-03-20T10:43:45.581Z,86.94
2017-03-20T10:44:46.113Z,87.48
2017-03-20T10:45:46.651Z,88.39
2017-03-20T10:46:47.181Z,87.74
2017-03-20T10:47:47.716Z,86.68
2017-03-20T10:48:48.250Z,86.38
2017-03-20T10:49:48.786Z,87.32
2017-03-20T10:50:49.317Z,87.21
2017-03-20T10:51:49.856Z,87.37
2017-03-20T10:52:50.394Z,86.79
2017-03-20T10:53:50.930Z,86.89
2017-03-20T10:54:51.467Z,85.93
2017-03-20T10:55:51.999Z,87.05
2017-03-20T10:56:52.527Z,86.68
2017-03-20T10:57:53.063Z,86.52
2017-03-20T10:58:53.591Z,86.36
2017-03-20T10:59:54.128Z,86.79
2017-03-20T11:00:54.675Z,86.68
2017-03-20T11:01:55.219Z,88.17
2017-03-20T11:02:55.729Z,87.37
2017-03-20T11:03:56.257Z,86.97
2017-03-20T11:04:56.788Z,87.02
2017-03-20T11:05:57.324Z,86.81
2017-03-20T11:06:57.855Z,85.96
2017-03-20T11:07:58.388Z,86.81
2017-03-20T11:08:58.919Z,86.38
2017-03-20T11:09:59.455Z,87.59
2017-03-20T11:10:59.988Z,86.44
2017-03-20T11:12:00.518Z,85.72
2017-03-20T11:13:01.053Z,87.82
2017-03-20T11:14:01.582Z,87.37
2017-03-20T11:15:02.269Z,86.33
2017-03-20T11:16:02.657Z,86.57
2017-03-20T11:17:03.185Z,87.43
2017-03-20T11:18:03.713Z,88.36
2017-03-20T11:19:04.247Z,88.68
2017-03-20T11:20:04.774Z,88.31
2017-03-20T11:21:05.311Z,88.62
2017-03-20T11:22:05.845Z,88.92
2017-03-20T11:23:06.371Z,89.88
2017-03-20T11:24:06.905Z,90.85
2017-03-20T11:25:07.432Z,90.09
2017-03-20T11:26:07.967Z,89.72
2017-03-20T11:27:08.507Z,91.63
2017-03-20T11:28:09.037Z,89.99
2017-03-20T11:29:09.566Z,90.77
2017-03-20T11:30:10.100Z,88.41
2017-03-20T11:31:10.633Z,88.95
2017-03-20T11:32:11.171Z,89.27
2017-03-20T11:33:11.705Z,87.98
2017-03-20T11:34:12.242Z,88.60
2017-03-20T11:35:12.784Z,88.68
2017-03-20T11:36:13.320Z,86.25
2017-03-20T11:37:13.999Z,87.72
2017-03-20T11:38:14.381Z,87.02
2017-03-20T11:39:14.911Z,86.97
2017-03-20T11:40:15.447Z,84.71
2017-03-20T11:41:15.980Z,85.11
2017-03-20T11:42:16.516Z,83.99
2017-03-20T11:43:17.046Z,84.71
2017-03-20T11:44:17.581Z,86.04
2017-03-20T11:45:18.110Z,86.41
2017-03-20T11:46:18.639Z,86.01
2017-03-20T11:47:19.329Z,86.01
2017-03-20T11:48:19.707Z,83.38
2017-03-20T11:49:20.242Z,83.94
2017-03-20T11:50:20.917Z,85.75
2017-03-20T11:51:21.315Z,83.22
2017-03-20T11:52:21.838Z,83.78
2017-03-20T11:53:22.370Z,84.12
2017-03-20T11:54:22.902Z,82.43
2017-03-20T11:55:23.585Z,82.88
2017-03-20T11:56:23.967Z,82.14
2017-03-20T11:57:24.499Z,83.75
2017-03-20T11:58:25.034Z,80.81
2017-03-20T11:59:25.566Z,80.29
2017-03-20T12:00:26.101Z,82.06
2017-03-20T12:01:26.634Z,83.17
2017-03-20T12:02:27.165Z,82.56
2017-03-20T12:03:27.707Z,81.05
2017-03-20T12:04:28.230Z,80.68
2017-03-20T12:05:28.760Z,80.87
2017-03-20T12:06:29.303Z,82.03
2017-03-20T12:07:29.844Z,82.51
2017-03-20T12:08:30.366Z,82.82
2017-03-20T12:09:30.897Z,82.88
2017-03-20T12:10:31.427Z,81.87
2017-03-20T12:11:32.121Z,78.94
2017-03-20T12:12:32.497Z,80.63
2017-03-20T12:13:33.185Z,78.52
2017-03-20T12:14:33.718Z,80.15
2017-03-20T12:15:34.108Z,78.59
2017-03-20T12:16:34.644Z,80.21
2017-03-20T12:17:35.180Z,80.07
2017-03-20T12:18:35.713Z,79.57
2017-03-20T12:19:36.244Z,79.23
2017-03-20T12:20:36.779Z,75.70
2017-03-20T12:21:37.308Z,79.36
2017-03-20T12:22:37.845Z,78.67
2017-03-20T12:23:38.388Z,78.65
2017-03-20T12:24:38.912Z,76.62
2017-03-20T12:25:39.446Z,80.39
2017-03-20T12:26:39.974Z,76.31
2017-03-20T12:27:40.505Z,77.15
2017-03-20T12:28:41.038Z,77.02
2017-03-20T12:29:41.570Z,76.89
2017-03-20T12:30:42.108Z,75.94
2017-03-20T12:31:42.634Z,76.60
2017-03-20T12:32:43.316Z,77.09
2017-03-20T12:33:43.701Z,75.99
2017-03-20T12:34:44.241Z,76.46
2017-03-20T12:35:44.922Z,76.36
2017-03-20T12:36:45.303Z,76.07
2017-03-20T12:37:45.841Z,74.84
2017-03-20T12:38:46.371Z,77.23
2017-03-20T12:39:46.905Z,77.57
2017-03-20T12:40:47.439Z,77.67
2017-03-20T12:41:47.969Z,75.52
2017-03-20T12:42:48.507Z,76.67
2017-03-20T12:43:49.038Z,75.81
2017-03-20T12:44:49.571Z,75.81
2017-03-20T12:45:50.103Z,74.94
2017-03-20T12:46:50.639Z,73.77
2017-03-20T12:47:51.167Z,75.86
2017-03-20T12:48:51.703Z,74.92
2017-03-20T12:49:52.234Z,75.47
2017-03-20T12:50:52.766Z,75.55
2017-03-20T12:51:53.451Z,75.10
2017-03-20T12:52:53.832Z,75.07
2017-03-20T12:53:54.365Z,75.57
2017-03-20T12:54:54.901Z,75.21
2017-03-20T12:55:55.440Z,73.77
2017-03-20T12:56:56.125Z,71.86
2017-03-20T12:57:56.521Z,71.62
2017-03-20T12:58:57.049Z,71.99
2017-03-20T12:59:57.597Z,72.51
2017-03-20T13:00:58.111Z,71.96